Ahsahka, Idaho
Current Conditions -  °F | °C
As of 4:56 AM on Saturday 25 Oct 2014 (Local Time) from KLWS Reporting Station
Clear Clear  
Wind Chill: 50°   Ceiling: Unl
Heat Index: 50°   Visibility: 10mi
Dew Point: 46°   Wind: 10mph
Humidity: 86%   Direction: 80°E
Pressure: 29.76"   Gusts: NA
Location:  46.51°N, 116.35°W
Report Text: KLWS 251156Z AUTO 08009KT 10SM CLR 10/08 A2976 RMK AO2 SLP077 70004 T01000078 10106 20089 56027
Loading
Personal Weather Stations






























Interactive Weather Map
Tropical Storm Tracking
New forecast layout! Learn more

10-Day Weather Forecast

Advertisements
Track Severe Weather on mobile